Terminal Aerodrome Forecast
Issued by NWS Boise, ID

Home | Current Version | Previous Version | Text Only | Print | Product List | Glossary On
Versions: 1 2 3 4 5 6 7 8 9 10 11 12 13 14 15 16 17 18 19 20 21 22 23 24 25 26 27 28 29 30 31 32 33 34
000
FTUS45 KBOI 160051 AAA
TAFBOI
TAF AMD
KBOI 160051Z 1601/1624 33007KT P6SM FEW020 OVC060
     FM160400 32010KT 1 1/2SM -SN BR OVC010
     FM160900 31012KT 5SM BR OVC020
     FM161800 31012G22KT P6SM SCT030=

USA.gov is the U.S. government's official web portal to all federal, state and local government web resources and services.